sensor_id;sensor_type;location;lat;lon;timestamp;temperature;humidity
2997;DHT22;1508;48.744;9.110;2023-04-03T00:01:37;2.90;99.90
2997;DHT22;1508;48.744;9.110;2023-04-03T00:04:23;2.90;99.90
2997;DHT22;1508;48.744;9.110;2023-04-03T00:07:09;2.90;99.90
2997;DHT22;1508;48.744;9.110;2023-04-03T00:09:54;2.90;99.90
2997;DHT22;1508;48.744;9.110;2023-04-03T00:12:40;2.90;99.90
2997;DHT22;1508;48.744;9.110;2023-04-03T00:15:26;2.90;99.90
2997;DHT22;1508;48.744;9.110;2023-04-03T00:18:12;2.90;99.90
2997;DHT22;1508;48.744;9.110;2023-04-03T00:20:58;2.90;99.90
2997;DHT22;1508;48.744;9.110;2023-04-03T00:23:43;2.90;99.90
2997;DHT22;1508;48.744;9.110;2023-04-03T00:26:29;2.80;99.90
2997;DHT22;1508;48.744;9.110;2023-04-03T00:29:15;2.80;99.90
2997;DHT22;1508;48.744;9.110;2023-04-03T00:32:01;2.70;99.90
2997;DHT22;1508;48.744;9.110;2023-04-03T00:34:46;2.70;99.90
2997;DHT22;1508;48.744;9.110;2023-04-03T00:37:32;2.80;99.90
2997;DHT22;1508;48.744;9.110;2023-04-03T00:40:18;2.80;99.90
2997;DHT22;1508;48.744;9.110;2023-04-03T00:43:10;2.80;99.90
2997;DHT22;1508;48.744;9.110;2023-04-03T00:45:57;2.80;99.90
2997;DHT22;1508;48.744;9.110;2023-04-03T00:48:47;2.80;99.90
2997;DHT22;1508;48.744;9.110;2023-04-03T00:51:33;2.80;99.90
2997;DHT22;1508;48.744;9.110;2023-04-03T00:54:19;2.70;99.90
2997;DHT22;1508;48.744;9.110;2023-04-03T00:57:05;2.70;99.90
2997;DHT22;1508;48.744;9.110;2023-04-03T00:59:53;2.60;99.90
2997;DHT22;1508;48.744;9.110;2023-04-03T01:02:39;2.60;99.90
2997;DHT22;1508;48.744;9.110;2023-04-03T01:05:25;2.60;99.90
2997;DHT22;1508;48.744;9.110;2023-04-03T01:08:11;2.60;99.90
2997;DHT22;1508;48.744;9.110;2023-04-03T01:10:57;2.60;99.90
2997;DHT22;1508;48.744;9.110;2023-04-03T01:13:42;2.50;99.90
2997;DHT22;1508;48.744;9.110;2023-04-03T01:16:29;2.60;99.90
2997;DHT22;1508;48.744;9.110;2023-04-03T01:19:15;2.50;99.90
2997;DHT22;1508;48.744;9.110;2023-04-03T01:22:14;2.50;99.90
2997;DHT22;1508;48.744;9.110;2023-04-03T01:25:01;2.50;99.90
2997;DHT22;1508;48.744;9.110;2023-04-03T01:27:47;2.40;99.90
2997;DHT22;1508;48.744;9.110;2023-04-03T01:30:34;2.40;99.90
2997;DHT22;1508;48.744;9.110;2023-04-03T01:33:21;2.40;99.90
2997;DHT22;1508;48.744;9.110;2023-04-03T01:36:10;2.30;99.90
2997;DHT22;1508;48.744;9.110;2023-04-03T01:38:56;2.30;99.90
2997;DHT22;1508;48.744;9.110;2023-04-03T01:41:42;2.30;99.90
2997;DHT22;1508;48.744;9.110;2023-04-03T01:44:28;2.30;99.90
2997;DHT22;1508;48.744;9.110;2023-04-03T01:47:13;2.30;99.90
2997;DHT22;1508;48.744;9.110;2023-04-03T01:49:59;2.30;99.90
2997;DHT22;1508;48.744;9.110;2023-04-03T01:52:45;2.30;99.90
2997;DHT22;1508;48.744;9.110;2023-04-03T01:55:31;2.30;99.90
2997;DHT22;1508;48.744;9.110;2023-04-03T01:58:16;2.30;99.90
2997;DHT22;1508;48.744;9.110;2023-04-03T02:01:02;2.30;99.90
2997;DHT22;1508;48.744;9.110;2023-04-03T02:03:48;2.30;99.90
2997;DHT22;1508;48.744;9.110;2023-04-03T02:06:34;2.30;99.90
2997;DHT22;1508;48.744;9.110;2023-04-03T02:09:19;2.20;99.90
2997;DHT22;1508;48.744;9.110;2023-04-03T02:12:05;2.20;99.90
2997;DHT22;1508;48.744;9.110;2023-04-03T02:14:51;2.20;99.90
2997;DHT22;1508;48.744;9.110;2023-04-03T02:17:37;2.20;99.90
2997;DHT22;1508;48.744;9.110;2023-04-03T02:20:22;2.20;99.90
2997;DHT22;1508;48.744;9.110;2023-04-03T02:23:08;2.20;99.90
2997;DHT22;1508;48.744;9.110;2023-04-03T02:26:02;2.20;99.90
2997;DHT22;1508;48.744;9.110;2023-04-03T02:28:48;2.20;99.90
2997;DHT22;1508;48.744;9.110;2023-04-03T02:31:33;2.20;99.90
2997;DHT22;1508;48.744;9.110;2023-04-03T02:34:19;2.20;99.90
2997;DHT22;1508;48.744;9.110;2023-04-03T02:37:05;2.20;99.90
2997;DHT22;1508;48.744;9.110;2023-04-03T02:39:50;2.20;99.90
2997;DHT22;1508;48.744;9.110;2023-04-03T02:42:36;2.10;99.90
2997;DHT22;1508;48.744;9.110;2023-04-03T02:45:22;2.10;99.90
2997;DHT22;1508;48.744;9.110;2023-04-03T02:48:08;2.10;99.90
2997;DHT22;1508;48.744;9.110;2023-04-03T02:50:54;2.10;99.90
2997;DHT22;1508;48.744;9.110;2023-04-03T02:53:39;2.20;99.90
2997;DHT22;1508;48.744;9.110;2023-04-03T02:56:25;2.20;99.90
2997;DHT22;1508;48.744;9.110;2023-04-03T02:59:11;2.20;99.90
2997;DHT22;1508;48.744;9.110;2023-04-03T03:01:57;2.20;99.90
2997;DHT22;1508;48.744;9.110;2023-04-03T03:04:42;2.30;99.90
2997;DHT22;1508;48.744;9.110;2023-04-03T03:07:28;2.30;99.90
2997;DHT22;1508;48.744;9.110;2023-04-03T03:10:14;2.30;99.90
2997;DHT22;1508;48.744;9.110;2023-04-03T03:13:00;2.30;99.90
2997;DHT22;1508;48.744;9.110;2023-04-03T03:15:45;2.30;99.90
2997;DHT22;1508;48.744;9.110;2023-04-03T03:18:31;2.30;99.90
2997;DHT22;1508;48.744;9.110;2023-04-03T03:21:17;2.30;99.90
2997;DHT22;1508;48.744;9.110;2023-04-03T03:24:03;2.30;99.90
2997;DHT22;1508;48.744;9.110;2023-04-03T03:26:49;2.30;99.90
2997;DHT22;1508;48.744;9.110;2023-04-03T03:29:34;2.30;99.90
2997;DHT22;1508;48.744;9.110;2023-04-03T03:32:20;2.30;99.90
2997;DHT22;1508;48.744;9.110;2023-04-03T03:35:06;2.30;99.90
2997;DHT22;1508;48.744;9.110;2023-04-03T03:37:52;2.30;99.90
2997;DHT22;1508;48.744;9.110;2023-04-03T03:40:38;2.30;99.90
2997;DHT22;1508;48.744;9.110;2023-04-03T03:43:24;2.30;99.90
2997;DHT22;1508;48.744;9.110;2023-04-03T03:46:09;2.40;99.90
2997;DHT22;1508;48.744;9.110;2023-04-03T03:48:55;2.40;99.90
2997;DHT22;1508;48.744;9.110;2023-04-03T03:51:41;2.40;99.90
2997;DHT22;1508;48.744;9.110;2023-04-03T03:54:26;2.40;99.90
2997;DHT22;1508;48.744;9.110;2023-04-03T03:57:12;2.40;99.90
2997;DHT22;1508;48.744;9.110;2023-04-03T03:59:58;2.40;99.90
2997;DHT22;1508;48.744;9.110;2023-04-03T04:02:44;2.40;99.90
2997;DHT22;1508;48.744;9.110;2023-04-03T04:05:30;2.40;99.90
2997;DHT22;1508;48.744;9.110;2023-04-03T04:08:15;2.40;99.90
2997;DHT22;1508;48.744;9.110;2023-04-03T04:11:01;2.40;99.90
2997;DHT22;1508;48.744;9.110;2023-04-03T04:13:47;2.40;99.90
2997;DHT22;1508;48.744;9.110;2023-04-03T04:16:33;2.40;99.90
2997;DHT22;1508;48.744;9.110;2023-04-03T04:19:18;2.40;99.90
2997;DHT22;1508;48.744;9.110;2023-04-03T04:22:04;2.40;99.90
2997;DHT22;1508;48.744;9.110;2023-04-03T04:24:50;2.50;99.90
2997;DHT22;1508;48.744;9.110;2023-04-03T04:27:36;2.50;99.90
2997;DHT22;1508;48.744;9.110;2023-04-03T04:30:21;2.50;99.90
2997;DHT22;1508;48.744;9.110;2023-04-03T04:33:07;2.40;99.90
2997;DHT22;1508;48.744;9.110;2023-04-03T04:35:53;2.50;99.90
2997;DHT22;1508;48.744;9.110;2023-04-03T04:38:39;2.50;99.90
2997;DHT22;1508;48.744;9.110;2023-04-03T04:41:24;2.40;99.90
2997;DHT22;1508;48.744;9.110;2023-04-03T04:44:10;2.40;99.90
2997;DHT22;1508;48.744;9.110;2023-04-03T04:46:56;2.50;99.90
2997;DHT22;1508;48.744;9.110;2023-04-03T04:49:41;2.40;99.90
2997;DHT22;1508;48.744;9.110;2023-04-03T04:52:27;2.50;99.90
2997;DHT22;1508;48.744;9.110;2023-04-03T04:55:13;2.50;99.90
2997;DHT22;1508;48.744;9.110;2023-04-03T04:57:59;2.60;99.90
2997;DHT22;1508;48.744;9.110;2023-04-03T05:00:45;2.50;99.90
2997;DHT22;1508;48.744;9.110;2023-04-03T05:03:30;2.50;99.90
2997;DHT22;1508;48.744;9.110;2023-04-03T05:06:16;2.50;99.90
2997;DHT22;1508;48.744;9.110;2023-04-03T05:09:02;2.50;99.90
2997;DHT22;1508;48.744;9.110;2023-04-03T05:11:48;2.50;99.90
2997;DHT22;1508;48.744;9.110;2023-04-03T05:14:33;2.50;99.90
2997;DHT22;1508;48.744;9.110;2023-04-03T05:17:19;2.60;99.90
2997;DHT22;1508;48.744;9.110;2023-04-03T05:20:05;2.60;99.90
2997;DHT22;1508;48.744;9.110;2023-04-03T05:22:51;2.60;99.90
2997;DHT22;1508;48.744;9.110;2023-04-03T05:25:37;2.70;99.90
2997;DHT22;1508;48.744;9.110;2023-04-03T05:28:23;2.70;99.90
2997;DHT22;1508;48.744;9.110;2023-04-03T05:31:09;2.70;99.90
2997;DHT22;1508;48.744;9.110;2023-04-03T05:33:55;2.70;99.90
2997;DHT22;1508;48.744;9.110;2023-04-03T05:36:40;2.80;99.90
2997;DHT22;1508;48.744;9.110;2023-04-03T05:39:26;2.80;99.90
2997;DHT22;1508;48.744;9.110;2023-04-03T05:42:21;2.80;99.90
2997;DHT22;1508;48.744;9.110;2023-04-03T05:45:07;2.80;99.90
2997;DHT22;1508;48.744;9.110;2023-04-03T05:47:53;2.70;99.90
2997;DHT22;1508;48.744;9.110;2023-04-03T05:50:38;2.80;99.90
2997;DHT22;1508;48.744;9.110;2023-04-03T05:53:26;3.00;99.90
2997;DHT22;1508;48.744;9.110;2023-04-03T05:56:12;3.30;99.90
2997;DHT22;1508;48.744;9.110;2023-04-03T05:58:58;3.70;99.90
2997;DHT22;1508;48.744;9.110;2023-04-03T06:01:43;3.70;99.90
2997;DHT22;1508;48.744;9.110;2023-04-03T06:04:29;3.70;99.90
2997;DHT22;1508;48.744;9.110;2023-04-03T06:07:16;3.80;99.90
2997;DHT22;1508;48.744;9.110;2023-04-03T06:10:02;4.00;99.90
2997;DHT22;1508;48.744;9.110;2023-04-03T06:12:48;3.50;99.90
2997;DHT22;1508;48.744;9.110;2023-04-03T06:15:34;3.30;99.90
2997;DHT22;1508;48.744;9.110;2023-04-03T06:18:20;3.20;99.90
2997;DHT22;1508;48.744;9.110;2023-04-03T06:21:05;3.30;99.90
2997;DHT22;1508;48.744;9.110;2023-04-03T06:23:51;3.10;99.90
2997;DHT22;1508;48.744;9.110;2023-04-03T06:26:37;3.10;99.90
2997;DHT22;1508;48.744;9.110;2023-04-03T06:29:23;3.00;99.90
2997;DHT22;1508;48.744;9.110;2023-04-03T06:32:09;3.00;99.90
2997;DHT22;1508;48.744;9.110;2023-04-03T06:34:54;2.90;99.90
2997;DHT22;1508;48.744;9.110;2023-04-03T06:37:40;3.00;99.90
2997;DHT22;1508;48.744;9.110;2023-04-03T06:40:26;3.10;99.90
2997;DHT22;1508;48.744;9.110;2023-04-03T06:43:12;3.30;99.90
2997;DHT22;1508;48.744;9.110;2023-04-03T06:45:57;3.30;99.90
2997;DHT22;1508;48.744;9.110;2023-04-03T06:48:43;3.40;99.90
2997;DHT22;1508;48.744;9.110;2023-04-03T06:51:29;3.30;99.90
2997;DHT22;1508;48.744;9.110;2023-04-03T06:54:15;3.40;99.90
2997;DHT22;1508;48.744;9.110;2023-04-03T06:57:01;3.30;99.90
2997;DHT22;1508;48.744;9.110;2023-04-03T06:59:47;3.30;99.90
2997;DHT22;1508;48.744;9.110;2023-04-03T07:02:33;3.30;99.90
2997;DHT22;1508;48.744;9.110;2023-04-03T07:05:19;3.30;99.90
2997;DHT22;1508;48.744;9.110;2023-04-03T07:08:04;3.30;99.90
2997;DHT22;1508;48.744;9.110;2023-04-03T07:10:50;3.30;99.90
2997;DHT22;1508;48.744;9.110;2023-04-03T07:13:36;3.30;99.90
2997;DHT22;1508;48.744;9.110;2023-04-03T07:16:22;3.30;99.90
2997;DHT22;1508;48.744;9.110;2023-04-03T07:19:08;3.30;99.90
2997;DHT22;1508;48.744;9.110;2023-04-03T07:21:53;3.40;99.90
2997;DHT22;1508;48.744;9.110;2023-04-03T07:24:39;3.40;99.90
2997;DHT22;1508;48.744;9.110;2023-04-03T07:27:25;3.50;99.90
2997;DHT22;1508;48.744;9.110;2023-04-03T07:30:11;3.50;99.90
2997;DHT22;1508;48.744;9.110;2023-04-03T07:32:57;3.60;99.90
2997;DHT22;1508;48.744;9.110;2023-04-03T07:35:43;3.60;99.90
2997;DHT22;1508;48.744;9.110;2023-04-03T07:38:28;3.60;99.90
2997;DHT22;1508;48.744;9.110;2023-04-03T07:41:15;3.80;99.90
2997;DHT22;1508;48.744;9.110;2023-04-03T07:44:01;3.80;99.90
2997;DHT22;1508;48.744;9.110;2023-04-03T07:46:47;3.70;99.90
2997;DHT22;1508;48.744;9.110;2023-04-03T07:49:32;3.90;99.90
2997;DHT22;1508;48.744;9.110;2023-04-03T07:52:18;3.90;99.90
2997;DHT22;1508;48.744;9.110;2023-04-03T07:55:04;4.10;99.90
2997;DHT22;1508;48.744;9.110;2023-04-03T07:57:50;4.20;99.90
2997;DHT22;1508;48.744;9.110;2023-04-03T08:00:36;4.30;99.90
2997;DHT22;1508;48.744;9.110;2023-04-03T08:03:22;4.30;99.90
2997;DHT22;1508;48.744;9.110;2023-04-03T08:06:08;4.40;99.90
2997;DHT22;1508;48.744;9.110;2023-04-03T08:08:53;4.30;99.90
2997;DHT22;1508;48.744;9.110;2023-04-03T08:11:39;4.40;99.90
2997;DHT22;1508;48.744;9.110;2023-04-03T08:14:25;4.30;99.90
2997;DHT22;1508;48.744;9.110;2023-04-03T08:17:11;4.00;99.90
2997;DHT22;1508;48.744;9.110;2023-04-03T08:19:56;4.00;99.90
2997;DHT22;1508;48.744;9.110;2023-04-03T08:22:42;3.90;99.90
2997;DHT22;1508;48.744;9.110;2023-04-03T08:25:28;4.10;99.90
2997;DHT22;1508;48.744;9.110;2023-04-03T08:28:13;4.00;99.90
2997;DHT22;1508;48.744;9.110;2023-04-03T08:31:02;4.10;99.90
2997;DHT22;1508;48.744;9.110;2023-04-03T08:33:48;4.50;99.90
2997;DHT22;1508;48.744;9.110;2023-04-03T08:36:33;4.50;99.90
2997;DHT22;1508;48.744;9.110;2023-04-03T08:39:19;4.20;99.90
2997;DHT22;1508;48.744;9.110;2023-04-03T08:42:07;4.20;99.90
2997;DHT22;1508;48.744;9.110;2023-04-03T08:48:12;4.30;99.90
2997;DHT22;1508;48.744;9.110;2023-04-03T08:51:00;4.40;99.90
2997;DHT22;1508;48.744;9.110;2023-04-03T08:53:55;4.60;99.90
2997;DHT22;1508;48.744;9.110;2023-04-03T08:56:42;4.50;99.90
2997;DHT22;1508;48.744;9.110;2023-04-03T08:59:28;4.40;99.90
2997;DHT22;1508;48.744;9.110;2023-04-03T09:03:01;4.60;99.90
2997;DHT22;1508;48.744;9.110;2023-04-03T09:08:40;4.90;99.90
2997;DHT22;1508;48.744;9.110;2023-04-03T09:14:46;5.40;99.90
2997;DHT22;1508;48.744;9.110;2023-04-03T09:17:38;5.40;99.90
2997;DHT22;1508;48.744;9.110;2023-04-03T09:23:45;6.00;99.90
2997;DHT22;1508;48.744;9.110;2023-04-03T09:26:33;5.90;99.90
2997;DHT22;1508;48.744;9.110;2023-04-03T09:29:22;6.00;99.90
2997;DHT22;1508;48.744;9.110;2023-04-03T09:32:18;5.90;99.90
2997;DHT22;1508;48.744;9.110;2023-04-03T09:35:09;6.00;99.90
2997;DHT22;1508;48.744;9.110;2023-04-03T09:43:53;5.80;99.90
2997;DHT22;1508;48.744;9.110;2023-04-03T09:46:39;5.90;99.90
2997;DHT22;1508;48.744;9.110;2023-04-03T09:49:25;6.00;99.90
2997;DHT22;1508;48.744;9.110;2023-04-03T09:52:18;6.10;99.90
2997;DHT22;1508;48.744;9.110;2023-04-03T09:55:08;6.10;99.90
2997;DHT22;1508;48.744;9.110;2023-04-03T09:57:59;6.20;99.90
2997;DHT22;1508;48.744;9.110;2023-04-03T10:00:46;6.30;99.90
2997;DHT22;1508;48.744;9.110;2023-04-03T10:03:39;6.20;99.90
2997;DHT22;1508;48.744;9.110;2023-04-03T10:06:24;6.00;99.90
2997;DHT22;1508;48.744;9.110;2023-04-03T10:09:18;5.90;99.90
2997;DHT22;1508;48.744;9.110;2023-04-03T10:12:11;5.70;99.90
2997;DHT22;1508;48.744;9.110;2023-04-03T10:14:57;5.60;99.90
2997;DHT22;1508;48.744;9.110;2023-04-03T10:20:46;5.40;99.90
2997;DHT22;1508;48.744;9.110;2023-04-03T10:23:41;5.10;99.90
2997;DHT22;1508;48.744;9.110;2023-04-03T10:26:35;5.20;99.90
2997;DHT22;1508;48.744;9.110;2023-04-03T10:32:43;5.10;99.90
2997;DHT22;1508;48.744;9.110;2023-04-03T10:35:35;5.30;99.90
2997;DHT22;1508;48.744;9.110;2023-04-03T10:52:58;4.90;99.90
2997;DHT22;1508;48.744;9.110;2023-04-03T10:58:40;4.90;99.90
2997;DHT22;1508;48.744;9.110;2023-04-03T11:01:30;5.00;99.90
2997;DHT22;1508;48.744;9.110;2023-04-03T11:04:17;5.20;99.90
2997;DHT22;1508;48.744;9.110;2023-04-03T11:07:08;5.30;99.90
2997;DHT22;1508;48.744;9.110;2023-04-03T11:09:56;5.30;99.90
2997;DHT22;1508;48.744;9.110;2023-04-03T11:12:46;5.10;99.90
2997;DHT22;1508;48.744;9.110;2023-04-03T11:15:32;5.10;99.90
2997;DHT22;1508;48.744;9.110;2023-04-03T11:18:19;5.30;99.90
2997;DHT22;1508;48.744;9.110;2023-04-03T11:23:58;5.10;99.90
2997;DHT22;1508;48.744;9.110;2023-04-03T11:26:44;5.20;99.90
2997;DHT22;1508;48.744;9.110;2023-04-03T11:29:36;5.20;99.90
2997;DHT22;1508;48.744;9.110;2023-04-03T11:35:18;5.60;99.90
2997;DHT22;1508;48.744;9.110;2023-04-03T11:38:05;5.70;99.90
2997;DHT22;1508;48.744;9.110;2023-04-03T11:40:51;5.70;99.90
2997;DHT22;1508;48.744;9.110;2023-04-03T11:43:40;5.70;99.90
2997;DHT22;1508;48.744;9.110;2023-04-03T11:52:56;5.50;99.90
2997;DHT22;1508;48.744;9.110;2023-04-03T11:55:43;5.50;99.90
2997;DHT22;1508;48.744;9.110;2023-04-03T11:58:33;5.60;99.90
2997;DHT22;1508;48.744;9.110;2023-04-03T12:01:42;5.70;99.90
2997;DHT22;1508;48.744;9.110;2023-04-03T12:04:27;5.80;99.90
2997;DHT22;1508;48.744;9.110;2023-04-03T12:07:14;5.90;99.90
2997;DHT22;1508;48.744;9.110;2023-04-03T12:10:02;5.80;99.90
2997;DHT22;1508;48.744;9.110;2023-04-03T12:12:56;5.80;99.90
2997;DHT22;1508;48.744;9.110;2023-04-03T12:15:47;5.80;99.90
2997;DHT22;1508;48.744;9.110;2023-04-03T12:18:43;5.80;99.90
2997;DHT22;1508;48.744;9.110;2023-04-03T12:41:26;5.50;99.90
2997;DHT22;1508;48.744;9.110;2023-04-03T12:44:19;5.50;99.90
2997;DHT22;1508;48.744;9.110;2023-04-03T12:47:16;5.50;99.90
2997;DHT22;1508;48.744;9.110;2023-04-03T12:50:04;5.60;99.90
2997;DHT22;1508;48.744;9.110;2023-04-03T12:53:01;5.50;99.90
2997;DHT22;1508;48.744;9.110;2023-04-03T12:55:47;5.60;99.90
2997;DHT22;1508;48.744;9.110;2023-04-03T12:58:33;5.50;99.90
2997;DHT22;1508;48.744;9.110;2023-04-03T13:01:25;5.60;99.90
2997;DHT22;1508;48.744;9.110;2023-04-03T13:04:11;5.60;99.90
2997;DHT22;1508;48.744;9.110;2023-04-03T13:06:57;5.60;99.90
2997;DHT22;1508;48.744;9.110;2023-04-03T13:09:43;5.80;99.90
2997;DHT22;1508;48.744;9.110;2023-04-03T13:12:47;5.90;99.90
2997;DHT22;1508;48.744;9.110;2023-04-03T13:15:40;5.90;99.90
2997;DHT22;1508;48.744;9.110;2023-04-03T13:18:30;5.90;99.90
2997;DHT22;1508;48.744;9.110;2023-04-03T13:21:17;6.10;99.90
2997;DHT22;1508;48.744;9.110;2023-04-03T13:24:04;6.10;99.90
2997;DHT22;1508;48.744;9.110;2023-04-03T13:26:51;6.40;99.90
2997;DHT22;1508;48.744;9.110;2023-04-03T13:29:37;6.70;99.90
2997;DHT22;1508;48.744;9.110;2023-04-03T13:32:23;6.60;99.90
2997;DHT22;1508;48.744;9.110;2023-04-03T13:35:29;6.30;99.90
2997;DHT22;1508;48.744;9.110;2023-04-03T13:41:20;6.40;99.90
2997;DHT22;1508;48.744;9.110;2023-04-03T13:53:01;6.90;99.90
2997;DHT22;1508;48.744;9.110;2023-04-03T13:55:55;7.00;99.90
2997;DHT22;1508;48.744;9.110;2023-04-03T13:58:51;6.90;99.90
2997;DHT22;1508;48.744;9.110;2023-04-03T14:01:48;6.20;99.90
2997;DHT22;1508;48.744;9.110;2023-04-03T14:07:30;6.50;99.90
2997;DHT22;1508;48.744;9.110;2023-04-03T14:10:16;6.70;99.90
2997;DHT22;1508;48.744;9.110;2023-04-03T14:13:02;6.90;99.90
2997;DHT22;1508;48.744;9.110;2023-04-03T14:15:48;6.70;99.90
2997;DHT22;1508;48.744;9.110;2023-04-03T14:18:34;6.70;99.90
2997;DHT22;1508;48.744;9.110;2023-04-03T14:21:20;6.40;99.90
2997;DHT22;1508;48.744;9.110;2023-04-03T14:24:06;6.20;99.90
2997;DHT22;1508;48.744;9.110;2023-04-03T14:26:53;6.10;99.90
2997;DHT22;1508;48.744;9.110;2023-04-03T14:29:39;6.10;99.90
2997;DHT22;1508;48.744;9.110;2023-04-03T14:32:25;6.20;99.90
2997;DHT22;1508;48.744;9.110;2023-04-03T14:35:11;6.10;99.90
2997;DHT22;1508;48.744;9.110;2023-04-03T14:37:56;6.00;99.90
2997;DHT22;1508;48.744;9.110;2023-04-03T14:40:42;6.00;99.90
2997;DHT22;1508;48.744;9.110;2023-04-03T14:43:28;5.90;99.90
2997;DHT22;1508;48.744;9.110;2023-04-03T14:48:59;6.00;99.90
2997;DHT22;1508;48.744;9.110;2023-04-03T14:51:45;5.80;99.90
2997;DHT22;1508;48.744;9.110;2023-04-03T14:54:31;5.90;99.90
2997;DHT22;1508;48.744;9.110;2023-04-03T14:57:17;6.10;99.90
2997;DHT22;1508;48.744;9.110;2023-04-03T15:00:04;6.40;99.90
2997;DHT22;1508;48.744;9.110;2023-04-03T15:02:50;6.90;99.90
2997;DHT22;1508;48.744;9.110;2023-04-03T15:05:36;7.40;99.90
2997;DHT22;1508;48.744;9.110;2023-04-03T15:08:22;7.30;99.90
2997;DHT22;1508;48.744;9.110;2023-04-03T15:11:11;6.90;99.90
2997;DHT22;1508;48.744;9.110;2023-04-03T15:13:57;6.60;99.90
2997;DHT22;1508;48.744;9.110;2023-04-03T15:16:43;6.40;99.90
2997;DHT22;1508;48.744;9.110;2023-04-03T15:19:30;6.40;99.90
2997;DHT22;1508;48.744;9.110;2023-04-03T15:22:18;6.40;99.90
2997;DHT22;1508;48.744;9.110;2023-04-03T15:25:04;6.30;99.90
2997;DHT22;1508;48.744;9.110;2023-04-03T15:27:50;6.40;99.90
2997;DHT22;1508;48.744;9.110;2023-04-03T15:30:36;6.30;99.90
2997;DHT22;1508;48.744;9.110;2023-04-03T15:33:24;6.20;99.90
2997;DHT22;1508;48.744;9.110;2023-04-03T15:36:10;6.00;99.90
2997;DHT22;1508;48.744;9.110;2023-04-03T15:38:56;6.10;99.90
2997;DHT22;1508;48.744;9.110;2023-04-03T15:41:42;6.00;99.90
2997;DHT22;1508;48.744;9.110;2023-04-03T15:44:27;6.00;99.90
2997;DHT22;1508;48.744;9.110;2023-04-03T15:47:13;6.00;99.90
2997;DHT22;1508;48.744;9.110;2023-04-03T15:49:59;5.90;99.90
2997;DHT22;1508;48.744;9.110;2023-04-03T15:52:45;5.80;99.90
2997;DHT22;1508;48.744;9.110;2023-04-03T15:55:32;5.80;99.90
2997;DHT22;1508;48.744;9.110;2023-04-03T15:58:18;5.50;99.90
2997;DHT22;1508;48.744;9.110;2023-04-03T16:01:03;5.50;99.90
2997;DHT22;1508;48.744;9.110;2023-04-03T16:03:49;5.30;99.90
2997;DHT22;1508;48.744;9.110;2023-04-03T16:06:35;5.20;99.90
2997;DHT22;1508;48.744;9.110;2023-04-03T16:09:21;5.20;99.90
2997;DHT22;1508;48.744;9.110;2023-04-03T16:12:07;5.30;99.90
2997;DHT22;1508;48.744;9.110;2023-04-03T16:14:53;5.40;99.90
2997;DHT22;1508;48.744;9.110;2023-04-03T16:17:39;5.60;99.90
2997;DHT22;1508;48.744;9.110;2023-04-03T16:20:25;5.80;99.90
2997;DHT22;1508;48.744;9.110;2023-04-03T16:23:11;5.90;99.90
2997;DHT22;1508;48.744;9.110;2023-04-03T16:25:57;6.00;99.90
2997;DHT22;1508;48.744;9.110;2023-04-03T16:28:43;6.10;99.90
2997;DHT22;1508;48.744;9.110;2023-04-03T16:31:28;6.20;99.90
2997;DHT22;1508;48.744;9.110;2023-04-03T16:34:14;6.10;99.90
2997;DHT22;1508;48.744;9.110;2023-04-03T16:37:00;5.80;99.90
2997;DHT22;1508;48.744;9.110;2023-04-03T16:39:46;5.80;99.90
2997;DHT22;1508;48.744;9.110;2023-04-03T16:42:32;5.60;99.90
2997;DHT22;1508;48.744;9.110;2023-04-03T16:45:18;5.50;99.90
2997;DHT22;1508;48.744;9.110;2023-04-03T16:48:04;5.40;99.90
2997;DHT22;1508;48.744;9.110;2023-04-03T16:50:49;5.30;99.90
2997;DHT22;1508;48.744;9.110;2023-04-03T16:53:35;5.20;99.90
2997;DHT22;1508;48.744;9.110;2023-04-03T16:56:21;5.20;99.90
2997;DHT22;1508;48.744;9.110;2023-04-03T16:59:07;5.20;99.90
2997;DHT22;1508;48.744;9.110;2023-04-03T17:01:52;5.20;99.90
2997;DHT22;1508;48.744;9.110;2023-04-03T17:04:38;5.20;99.90
2997;DHT22;1508;48.744;9.110;2023-04-03T17:07:24;5.20;99.90
2997;DHT22;1508;48.744;9.110;2023-04-03T17:10:11;5.20;99.90
2997;DHT22;1508;48.744;9.110;2023-04-03T17:12:57;5.20;99.90
2997;DHT22;1508;48.744;9.110;2023-04-03T17:15:43;5.20;99.90
2997;DHT22;1508;48.744;9.110;2023-04-03T17:18:29;5.20;99.90
2997;DHT22;1508;48.744;9.110;2023-04-03T17:21:15;5.20;99.90
2997;DHT22;1508;48.744;9.110;2023-04-03T17:24:02;5.10;99.90
2997;DHT22;1508;48.744;9.110;2023-04-03T17:26:48;5.10;99.90
2997;DHT22;1508;48.744;9.110;2023-04-03T17:29:34;5.10;99.90
2997;DHT22;1508;48.744;9.110;2023-04-03T17:32:20;5.10;99.90
2997;DHT22;1508;48.744;9.110;2023-04-03T17:35:06;5.10;99.90
2997;DHT22;1508;48.744;9.110;2023-04-03T17:37:52;5.00;99.90
2997;DHT22;1508;48.744;9.110;2023-04-03T17:40:37;5.00;99.90
2997;DHT22;1508;48.744;9.110;2023-04-03T17:43:23;4.90;99.90
2997;DHT22;1508;48.744;9.110;2023-04-03T17:46:09;4.90;99.90
2997;DHT22;1508;48.744;9.110;2023-04-03T17:48:55;4.90;99.90
2997;DHT22;1508;48.744;9.110;2023-04-03T17:51:41;4.80;99.90
2997;DHT22;1508;48.744;9.110;2023-04-03T17:54:26;4.80;99.90
2997;DHT22;1508;48.744;9.110;2023-04-03T17:57:12;4.70;99.90
2997;DHT22;1508;48.744;9.110;2023-04-03T17:59:58;4.70;99.90
2997;DHT22;1508;48.744;9.110;2023-04-03T18:02:44;4.70;99.90
2997;DHT22;1508;48.744;9.110;2023-04-03T18:05:29;4.60;99.90
2997;DHT22;1508;48.744;9.110;2023-04-03T18:08:15;4.60;99.90
2997;DHT22;1508;48.744;9.110;2023-04-03T18:11:01;4.60;99.90
2997;DHT22;1508;48.744;9.110;2023-04-03T18:13:47;4.60;99.90
2997;DHT22;1508;48.744;9.110;2023-04-03T18:16:33;4.60;99.90
2997;DHT22;1508;48.744;9.110;2023-04-03T18:19:19;4.60;99.90
2997;DHT22;1508;48.744;9.110;2023-04-03T18:22:05;4.50;99.90
2997;DHT22;1508;48.744;9.110;2023-04-03T18:24:53;4.50;99.90
2997;DHT22;1508;48.744;9.110;2023-04-03T18:27:39;4.50;99.90
2997;DHT22;1508;48.744;9.110;2023-04-03T18:30:24;4.40;99.90
2997;DHT22;1508;48.744;9.110;2023-04-03T18:33:10;4.40;99.90
2997;DHT22;1508;48.744;9.110;2023-04-03T18:35:56;4.30;99.90
2997;DHT22;1508;48.744;9.110;2023-04-03T18:38:42;4.30;99.90
2997;DHT22;1508;48.744;9.110;2023-04-03T18:41:29;4.30;99.90
2997;DHT22;1508;48.744;9.110;2023-04-03T18:44:16;4.20;99.90
2997;DHT22;1508;48.744;9.110;2023-04-03T18:47:03;4.20;99.90
2997;DHT22;1508;48.744;9.110;2023-04-03T18:49:49;4.20;99.90
2997;DHT22;1508;48.744;9.110;2023-04-03T18:52:35;4.20;99.90
2997;DHT22;1508;48.744;9.110;2023-04-03T18:55:21;4.20;99.90
2997;DHT22;1508;48.744;9.110;2023-04-03T18:58:07;4.10;99.90
2997;DHT22;1508;48.744;9.110;2023-04-03T19:00:52;4.10;99.90
2997;DHT22;1508;48.744;9.110;2023-04-03T19:03:38;4.00;99.90
2997;DHT22;1508;48.744;9.110;2023-04-03T19:06:24;3.90;99.90
2997;DHT22;1508;48.744;9.110;2023-04-03T19:09:10;3.90;99.90
2997;DHT22;1508;48.744;9.110;2023-04-03T19:11:56;3.80;99.90
2997;DHT22;1508;48.744;9.110;2023-04-03T19:14:42;3.70;99.90
2997;DHT22;1508;48.744;9.110;2023-04-03T19:17:27;3.60;99.90
2997;DHT22;1508;48.744;9.110;2023-04-03T19:20:14;3.60;99.90
2997;DHT22;1508;48.744;9.110;2023-04-03T19:22:59;3.50;99.90
2997;DHT22;1508;48.744;9.110;2023-04-03T19:25:45;3.40;99.90
2997;DHT22;1508;48.744;9.110;2023-04-03T19:28:31;3.40;99.90
2997;DHT22;1508;48.744;9.110;2023-04-03T19:31:18;3.40;99.90
2997;DHT22;1508;48.744;9.110;2023-04-03T19:34:04;3.30;99.90
2997;DHT22;1508;48.744;9.110;2023-04-03T19:36:49;3.30;99.90
2997;DHT22;1508;48.744;9.110;2023-04-03T19:39:36;3.30;99.90
2997;DHT22;1508;48.744;9.110;2023-04-03T19:42:22;3.30;99.90
2997;DHT22;1508;48.744;9.110;2023-04-03T19:45:08;3.30;99.90
2997;DHT22;1508;48.744;9.110;2023-04-03T19:47:54;3.30;99.90
2997;DHT22;1508;48.744;9.110;2023-04-03T19:50:40;3.30;99.90
2997;DHT22;1508;48.744;9.110;2023-04-03T19:53:26;3.40;99.90
2997;DHT22;1508;48.744;9.110;2023-04-03T19:56:11;3.30;99.90
2997;DHT22;1508;48.744;9.110;2023-04-03T19:58:57;3.30;99.90